McKean County Weather on FaceBook
Current Metar reports for airports in our Region

Nearby METAR Reports

Metar reports(Meteorological Terminal Aviation Routine) are mainly used by pilots for information on what is happening at their destination during their pre-flight weather briefings and by meteorologists to assist in short term forecasts. A raw Metar is one of the most universal ways to communicate weather information in the world and are usually transmitted by airports, but some come from permanent sanctioned weather observatories.

Listed below are Metars from airports within 100 miles of our station here in Smethport Pa. The first one of course is the Bradford Regional Airport, then the Olean NY airport and so on. Each airport has it's own table to display it's data and at the bottom of the table is 'Raw' Metar for each airport. Most pilots and weather forecasters can look at the raw data and tell you what is up, but we use a script that handles all of the details for us.

KBFD - Bradford, Pennsylvania, USA
Distance from station: NW 7mi, 11km
Updated: Sat, 21-Sep-2019 9:53pm EDT
Mist, Partly cloudy
Mist, Partly cloudy
 Wind from ESE
Wind: ESE 3 mph , 6 km/h
Temperature: 63°F , 17°C
Dew Point: 61°F , 16°C
Humidity: 94%
Barometer: 30.24 inHg , 1024 hPa
Summary: Mist
Clouds: Partly Cloudy
Visibility: 4 miles , 6 km
Cloud details: Partly Cloudy 6000 ft
2019/09/22 01:53 KBFD 220153Z AUTO 12003KT 4SM BR SCT060 17/16 A3024 RMK AO2 SLP228 T01720156
KOLE - Olean, New York, USA
Distance from station: NNE 37mi, 59km
Updated: Sat, 21-Sep-2019 9:55pm EDT
Clear
Clear
 Wind from SSW
Wind: SSW 3 mph , 6 km/h
Temperature: 68°F , 20°C
Dew Point: 61°F , 16°C
Humidity: 78%
Barometer: 30.23 inHg , 1023.7 hPa
Clouds: Clear
Visibility: 10 miles , 16 km
2019/09/22 01:55 KOLE 220155Z AUTO 20003KT 10SM CLR 20/16 A3023 RMK AO2
 
KELZ - Wellsville, New York, USA
Distance from station: NE 40mi, 64km
Updated: Sat, 21-Sep-2019 9:56pm EDT
Clear
Clear
 Wind from calm
Wind: Calm
Temperature: 64°F , 18°C
Dew Point: 59°F , 15°C
Humidity: 83%
Barometer: 30.24 inHg , 1024 hPa
Clouds: Clear
Visibility: 10 miles , 16 km
2019/09/22 01:56 KELZ 220156Z AUTO 00000KT 10SM CLR 18/15 A3024 RMK AO2 SLP235 T01830150
KDUJ - Du Bois, Pennsylvania, USA
Distance from station: SSW 42mi, 68km
Updated: Sat, 21-Sep-2019 9:53pm EDT
Clear
Clear
 Wind from calm
Wind: Calm
Temperature: 70°F , 21°C
Dew Point: 64°F , 18°C
Humidity: 83%
Barometer: 30.22 inHg , 1023.4 hPa
Clouds: Clear
Visibility: 10 miles , 16 km
2019/09/22 01:53 KDUJ 220153Z AUTO 00000KT 10SM CLR 21/18 A3022 RMK AO2 SLP223 T02060178
 
KJHW - Jamestown, New York, USA
Distance from station: NW 46mi, 75km
Updated: Sat, 21-Sep-2019 9:56pm EDT
Clear
Clear
 Wind from calm
Wind: Calm
Temperature: 70°F , 21°C
Dew Point: 64°F , 18°C
Humidity: 83%
Barometer: 30.21 inHg , 1023 hPa
Clouds: Clear
Visibility: 10 miles , 16 km
2019/09/22 01:56 KJHW 220156Z AUTO 00000KT 10SM CLR 21/18 A3021 RMK AO2 SLP229 T02060183
KFIG - Clearfield, Pennsylvania, USA
Distance from station: S 47mi, 75km
Updated: Sat, 21-Sep-2019 9:54pm EDT
Clear
Clear
 Wind from NNW
Wind: NNW 6 mph , 9 km/h
Temperature: 64°F , 18°C
Dew Point: 63°F , 17°C
Humidity: 94%
Barometer: 30.22 inHg , 1023.4 hPa
Clouds: Clear
Visibility: 10 miles , 16 km
2019/09/22 01:54 KFIG 220154Z AUTO 33005KT 10SM CLR 18/17 A3022 RMK AO2 SLP231 T01830167
 
KDKK - Dunkirk, New York, USA
Distance from station: NW 66mi, 106km
Updated: Sat, 21-Sep-2019 9:53pm EDT
Clear
Clear
 Wind from S
Wind: S 3 mph , 6 km/h
Temperature: 68°F , 20°C
Dew Point: 63°F , 17°C
Humidity: 83%
Barometer: 30.14 inHg , 1020.7 hPa
Clouds: Clear
Visibility: 10 miles , 16 km
2019/09/22 01:53 KDKK 220153Z AUTO 18003KT 10SM CLR 20/17 A3014 RMK AO2 SLP203 T02000172 $
KUNV - State College, Pennsylvania, USA
Distance from station: SSE 71mi, 114km
Updated: Sat, 21-Sep-2019 9:53pm EDT
Clear
Clear
 Wind from calm
Wind: Calm
Temperature: 70°F , 21°C
Dew Point: 63°F , 17°C
Humidity: 78%
Barometer: 30.22 inHg , 1023.4 hPa
Clouds: Clear
Visibility: 10 miles , 16 km
2019/09/22 01:53 KUNV 220153Z 00000KT 10SM SKC 21/17 A3022
 
KFKL - Franklin, Pennsylvania, USA
Distance from station: WSW 72mi, 116km
Updated: Sat, 21-Sep-2019 9:56pm EDT
Few Clouds
Few Clouds
 Wind from calm
Wind: Calm
Temperature: 70°F , 21°C
Dew Point: 66°F , 19°C
Humidity: 88%
Barometer: 30.21 inHg , 1023 hPa
Clouds: Few Clouds
Visibility: 10 miles , 16 km
Cloud details: Few Clouds 8000 ft
2019/09/22 01:56 KFKL 220156Z AUTO 00000KT 10SM FEW080 21/19 A3021 RMK AO2 SLP223 T02110189
KDSV - Dansville, New York, USA
Distance from station: NE 73mi, 117km
Updated: Sat, 21-Sep-2019 9:54pm EDT
Clear
Clear
 Wind from SE
Wind: SE 7 mph , 11 km/h
Temperature: 66°F , 19°C
Dew Point: 61°F , 16°C
Humidity: 83%
Barometer: 30.17 inHg , 1021.7 hPa
Clouds: Clear
Visibility: 10 miles , 16 km
2019/09/22 01:54 KDSV 220154Z AUTO 14006KT 10SM CLR 19/16 A3017 RMK AO2 SLP223 T01890161
 
KIDI - Indiana/Stewart, Pennsylvania, USA
Distance from station: SSW 81mi, 130km
Updated: Sat, 21-Sep-2019 9:55pm EDT
Few Clouds
Few Clouds
 Wind from ESE
Wind: ESE 3 mph , 6 km/h
Temperature: 68°F , 20°C
Dew Point: 66°F , 19°C
Humidity: 94%
Barometer: 30.24 inHg , 1024 hPa
Clouds: Few Clouds
Visibility: 9 miles , 14 km
Cloud details: Few Clouds 5000 ft
Few Clouds 6000 ft
2019/09/22 01:55 KIDI 220155Z AUTO 11003KT 9SM FEW050 FEW060 20/19 A3024 RMK A01
KBUF - Buffalo/Cheektow, New York, USA
Distance from station: N 84mi, 136km
Updated: Sat, 21-Sep-2019 9:54pm EDT
Few Clouds
Few Clouds
 Wind from SSW
Wind: SSW 3 mph , 6 km/h
Temperature: 72°F , 22°C
Dew Point: 63°F , 17°C
Humidity: 73%
Barometer: 30.14 inHg , 1020.7 hPa
Clouds: Few Clouds
Visibility: 10 miles , 16 km
Cloud details: Few Clouds 26000 ft
2019/09/22 01:54 KBUF 220154Z 21003KT 10SM FEW260 22/17 A3014 RMK AO2 SLP202 T02220167
 
KGKJ - Meadville, Pennsylvania, USA
Distance from station: W 86mi, 138km
Updated: Sat, 21-Sep-2019 9:53pm EDT
Clear
Clear
 Wind from E
Wind: E 3 mph , 6 km/h
Temperature: 70°F , 21°C
Dew Point: 64°F , 18°C
Humidity: 83%
Barometer: 30.19 inHg , 1022.4 hPa
Clouds: Clear
Visibility: 10 miles , 16 km
2019/09/22 01:53 KGKJ 220153Z AUTO 10003KT 10SM CLR 21/18 A3019 RMK AO2 SLP214 T02110183 TSNO
KERI - Erie, Pennsylvania, USA
Distance from station: WNW 87mi, 140km
Updated: Sat, 21-Sep-2019 9:51pm EDT
Few Clouds
Few Clouds
 Wind from S
Wind: S 3 mph , 6 km/h
Temperature: 73°F , 23°C
Dew Point: 66°F , 19°C
Humidity: 78%
Barometer: 30.14 inHg , 1020.7 hPa
Clouds: Few Clouds
Visibility: 10 miles , 16 km
Cloud details: Few Clouds 5000 ft
2019/09/22 01:51 KERI 220151Z 17003KT 10SM FEW050 23/19 A3014 RMK AO2 SLP203 T02280189
 
KELM - Elmira, New York, USA
Distance from station: ENE 90mi, 145km
Updated: Sat, 21-Sep-2019 9:53pm EDT
Clear
Clear
 Wind from calm
Wind: Calm
Temperature: 59°F , 15°C
Dew Point: 57°F , 14°C
Humidity: 94%
Barometer: 30.19 inHg , 1022.4 hPa
Clouds: Clear
Visibility: 10 miles , 16 km
2019/09/22 01:53 KELM 220153Z 00000KT 10SM CLR 15/14 A3019 RMK AO2 SLP224 T01500139
KIPT - Williamsport, Pennsylvania, USA
Distance from station: ESE 91mi, 146km
Updated: Sat, 21-Sep-2019 9:54pm EDT
Mist, Clear
Mist, Clear
 Wind from calm
Wind: Calm
Temperature: 63°F , 17°C
Dew Point: 57°F , 14°C
Humidity: 83%
Barometer: 30.18 inHg , 1022 hPa
Summary: Mist
Clouds: Clear
Visibility: 6 miles , 10 km
2019/09/22 01:54 KIPT 220154Z 00000KT 6SM BR CLR 17/14 A3018 RMK AO2 SLP220 T01670144
 
KBTP - Butler Co., Pennsylvania, USA
Distance from station: SW 98mi, 157km
Updated: Sat, 21-Sep-2019 9:56pm EDT
Overcast
Overcast
 Wind from calm
Wind: Calm
Temperature: 72°F , 22°C
Dew Point: 66°F , 19°C
Humidity: 83%
Barometer: 30.20 inHg , 1022.7 hPa
Clouds: Overcast
Visibility: 10 miles , 16 km
Cloud details: Overcast 11000 ft
2019/09/22 01:56 KBTP 220156Z AUTO 00000KT 10SM OVC110 22/19 A3020 RMK AO2 SLP226 T02170189 PNO $
KAOO - Altoona, Pennsylvania, USA
Distance from station: S 99mi, 159km
Updated: Sat, 21-Sep-2019 9:53pm EDT
Few Clouds
Few Clouds
 Wind from calm
Wind: Calm
Temperature: 70°F , 21°C
Dew Point: 61°F , 16°C
Humidity: 73%
Barometer: 30.23 inHg , 1023.7 hPa
Clouds: Few Clouds
Visibility: 10 miles , 16 km
Cloud details: Few Clouds 6500 ft
2019/09/22 01:53 KAOO 220153Z AUTO 00000KT 10SM FEW065 21/16 A3023 RMK AO2 SLP228 T02110161
 
KPIT - Pittsburg, Pennsylvania, USA
Distance from station: SSW 126mi, 203km
Updated: Sat, 21-Sep-2019 9:51pm EDT
Partly Cloudy
Partly Cloudy
 Wind from SW
Wind: SW 3 mph , 6 km/h
Temperature: 75°F , 24°C
Dew Point: 64°F , 18°C
Humidity: 69%
Barometer: 30.19 inHg , 1022.4 hPa
Clouds: Partly Cloudy
Visibility: 10 miles , 16 km
Cloud details: Few Clouds 5000 ft
Partly Cloudy 25000 ft
2019/09/22 01:51 KPIT 220151Z 22003KT 10SM FEW050 SCT250 24/18 A3019 RMK AO2 SLP224 T02390183
KCLE - Cleveland, Ohio, USA
Distance from station: WSW 160mi, 258km
Updated: Sat, 21-Sep-2019 9:51pm EDT
Few Clouds
Few Clouds
 Wind from S
Wind: S 8 mph , 13 km/h
Temperature: 75°F , 24°C
Dew Point: 66°F , 19°C
Humidity: 74%
Barometer: 30.17 inHg , 1021.7 hPa
Clouds: Few Clouds
Visibility: 10 miles , 16 km
Cloud details: Few Clouds 25000 ft
2019/09/22 01:51 KCLE 220151Z 19007KT 10SM FEW250 24/19 A3017 RMK AO2 SLP210 T02440189